sensor_id;sensor_type;location;lat;lon;timestamp;temperature;humidity
21312;DHT22;18076;52.154;10.570;2023-12-28T00:00:06;9.60;99.90
21312;DHT22;18076;52.154;10.570;2023-12-28T00:02:32;9.50;99.90
21312;DHT22;18076;52.154;10.570;2023-12-28T00:04:57;9.50;99.90
21312;DHT22;18076;52.154;10.570;2023-12-28T00:07:23;9.50;99.90
21312;DHT22;18076;52.154;10.570;2023-12-28T00:09:48;9.50;99.90
21312;DHT22;18076;52.154;10.570;2023-12-28T00:12:14;9.50;99.90
21312;DHT22;18076;52.154;10.570;2023-12-28T00:14:40;9.50;99.90
21312;DHT22;18076;52.154;10.570;2023-12-28T00:17:05;9.50;99.90
21312;DHT22;18076;52.154;10.570;2023-12-28T00:19:31;9.50;99.90
21312;DHT22;18076;52.154;10.570;2023-12-28T00:21:56;9.60;99.90
21312;DHT22;18076;52.154;10.570;2023-12-28T00:24:22;9.60;99.90
21312;DHT22;18076;52.154;10.570;2023-12-28T00:26:47;9.60;99.90
21312;DHT22;18076;52.154;10.570;2023-12-28T00:29:13;9.70;99.90
21312;DHT22;18076;52.154;10.570;2023-12-28T00:31:38;9.70;99.90
21312;DHT22;18076;52.154;10.570;2023-12-28T00:34:04;9.70;99.90
21312;DHT22;18076;52.154;10.570;2023-12-28T00:36:29;9.80;99.90
21312;DHT22;18076;52.154;10.570;2023-12-28T00:38:55;9.70;99.90
21312;DHT22;18076;52.154;10.570;2023-12-28T00:41:20;9.60;99.90
21312;DHT22;18076;52.154;10.570;2023-12-28T00:43:46;9.50;99.90
21312;DHT22;18076;52.154;10.570;2023-12-28T00:46:11;9.50;99.90
21312;DHT22;18076;52.154;10.570;2023-12-28T00:48:37;9.40;99.90
21312;DHT22;18076;52.154;10.570;2023-12-28T00:51:02;9.40;99.90
21312;DHT22;18076;52.154;10.570;2023-12-28T00:53:28;9.40;99.90
21312;DHT22;18076;52.154;10.570;2023-12-28T00:55:53;9.40;99.90
21312;DHT22;18076;52.154;10.570;2023-12-28T00:58:19;9.50;99.90
21312;DHT22;18076;52.154;10.570;2023-12-28T01:00:44;9.50;99.90
21312;DHT22;18076;52.154;10.570;2023-12-28T01:03:10;9.60;99.90
21312;DHT22;18076;52.154;10.570;2023-12-28T01:05:36;9.60;99.90
21312;DHT22;18076;52.154;10.570;2023-12-28T01:08:01;9.60;99.90
21312;DHT22;18076;52.154;10.570;2023-12-28T01:10:27;9.70;99.90
21312;DHT22;18076;52.154;10.570;2023-12-28T01:12:53;9.70;99.90
21312;DHT22;18076;52.154;10.570;2023-12-28T01:15:18;9.70;99.90
21312;DHT22;18076;52.154;10.570;2023-12-28T01:17:46;9.60;99.90
21312;DHT22;18076;52.154;10.570;2023-12-28T01:20:11;9.60;99.90
21312;DHT22;18076;52.154;10.570;2023-12-28T01:22:37;9.60;99.90
21312;DHT22;18076;52.154;10.570;2023-12-28T01:25:02;9.50;99.90
21312;DHT22;18076;52.154;10.570;2023-12-28T01:27:28;9.50;99.90
21312;DHT22;18076;52.154;10.570;2023-12-28T01:29:53;9.50;99.90
21312;DHT22;18076;52.154;10.570;2023-12-28T01:32:19;9.50;99.90
21312;DHT22;18076;52.154;10.570;2023-12-28T01:34:45;9.50;99.90
21312;DHT22;18076;52.154;10.570;2023-12-28T01:37:10;9.50;99.90
21312;DHT22;18076;52.154;10.570;2023-12-28T01:39:36;9.50;99.90
21312;DHT22;18076;52.154;10.570;2023-12-28T01:42:01;9.50;99.90
21312;DHT22;18076;52.154;10.570;2023-12-28T01:44:27;9.50;99.90
21312;DHT22;18076;52.154;10.570;2023-12-28T01:46:53;9.40;99.90
21312;DHT22;18076;52.154;10.570;2023-12-28T01:49:18;9.50;99.90
21312;DHT22;18076;52.154;10.570;2023-12-28T01:51:44;9.50;99.90
21312;DHT22;18076;52.154;10.570;2023-12-28T01:54:12;9.50;99.90
21312;DHT22;18076;52.154;10.570;2023-12-28T01:56:37;9.50;99.90
21312;DHT22;18076;52.154;10.570;2023-12-28T01:59:03;9.50;99.90
21312;DHT22;18076;52.154;10.570;2023-12-28T02:01:29;9.50;99.90
21312;DHT22;18076;52.154;10.570;2023-12-28T02:03:54;9.50;99.90
21312;DHT22;18076;52.154;10.570;2023-12-28T02:06:21;9.50;99.90
21312;DHT22;18076;52.154;10.570;2023-12-28T02:08:48;9.40;99.90
21312;DHT22;18076;52.154;10.570;2023-12-28T02:11:13;9.40;99.90
21312;DHT22;18076;52.154;10.570;2023-12-28T02:13:39;9.40;99.90
21312;DHT22;18076;52.154;10.570;2023-12-28T02:16:07;9.40;99.90
21312;DHT22;18076;52.154;10.570;2023-12-28T02:18:39;9.30;99.90
21312;DHT22;18076;52.154;10.570;2023-12-28T02:21:06;9.30;99.90
21312;DHT22;18076;52.154;10.570;2023-12-28T02:23:33;9.30;99.90
21312;DHT22;18076;52.154;10.570;2023-12-28T02:25:59;9.30;99.90
21312;DHT22;18076;52.154;10.570;2023-12-28T02:28:24;9.20;99.90
21312;DHT22;18076;52.154;10.570;2023-12-28T02:30:50;9.30;99.90
21312;DHT22;18076;52.154;10.570;2023-12-28T02:33:18;9.20;99.90
21312;DHT22;18076;52.154;10.570;2023-12-28T02:38:29;9.20;99.90
21312;DHT22;18076;52.154;10.570;2023-12-28T02:40:56;9.20;99.90
21312;DHT22;18076;52.154;10.570;2023-12-28T02:43:21;9.10;99.90
21312;DHT22;18076;52.154;10.570;2023-12-28T02:45:47;9.20;99.90
21312;DHT22;18076;52.154;10.570;2023-12-28T02:48:12;9.10;99.90
21312;DHT22;18076;52.154;10.570;2023-12-28T02:50:38;9.10;99.90
21312;DHT22;18076;52.154;10.570;2023-12-28T02:53:04;9.00;99.90
21312;DHT22;18076;52.154;10.570;2023-12-28T02:55:29;9.00;99.90
21312;DHT22;18076;52.154;10.570;2023-12-28T02:57:55;9.00;99.90
21312;DHT22;18076;52.154;10.570;2023-12-28T03:00:21;9.00;99.90
21312;DHT22;18076;52.154;10.570;2023-12-28T03:02:47;8.90;99.90
21312;DHT22;18076;52.154;10.570;2023-12-28T03:05:13;8.90;99.90
21312;DHT22;18076;52.154;10.570;2023-12-28T03:07:38;8.90;99.90
21312;DHT22;18076;52.154;10.570;2023-12-28T03:10:06;8.90;99.90
21312;DHT22;18076;52.154;10.570;2023-12-28T03:12:31;8.80;99.90
21312;DHT22;18076;52.154;10.570;2023-12-28T03:14:57;8.80;99.90
21312;DHT22;18076;52.154;10.570;2023-12-28T03:17:22;8.80;99.90
21312;DHT22;18076;52.154;10.570;2023-12-28T03:19:48;8.80;99.90
21312;DHT22;18076;52.154;10.570;2023-12-28T03:22:14;8.70;99.90
21312;DHT22;18076;52.154;10.570;2023-12-28T03:24:39;8.70;99.90
21312;DHT22;18076;52.154;10.570;2023-12-28T03:27:05;8.70;99.90
21312;DHT22;18076;52.154;10.570;2023-12-28T03:29:31;8.70;99.90
21312;DHT22;18076;52.154;10.570;2023-12-28T03:31:56;8.70;99.90
21312;DHT22;18076;52.154;10.570;2023-12-28T03:34:22;8.70;99.90
21312;DHT22;18076;52.154;10.570;2023-12-28T03:36:49;8.70;99.90
21312;DHT22;18076;52.154;10.570;2023-12-28T03:39:14;8.60;99.90
21312;DHT22;18076;52.154;10.570;2023-12-28T03:41:40;8.60;99.90
21312;DHT22;18076;52.154;10.570;2023-12-28T03:44:05;8.60;99.90
21312;DHT22;18076;52.154;10.570;2023-12-28T03:46:31;8.50;99.90
21312;DHT22;18076;52.154;10.570;2023-12-28T03:48:56;8.50;99.90
21312;DHT22;18076;52.154;10.570;2023-12-28T03:51:22;8.40;99.90
21312;DHT22;18076;52.154;10.570;2023-12-28T03:53:47;8.30;99.90
21312;DHT22;18076;52.154;10.570;2023-12-28T03:56:23;8.30;99.90
21312;DHT22;18076;52.154;10.570;2023-12-28T03:58:49;8.30;99.90
21312;DHT22;18076;52.154;10.570;2023-12-28T04:01:15;8.30;99.90
21312;DHT22;18076;52.154;10.570;2023-12-28T04:03:40;8.20;99.90
21312;DHT22;18076;52.154;10.570;2023-12-28T04:06:06;8.20;99.90
21312;DHT22;18076;52.154;10.570;2023-12-28T04:08:32;8.20;99.90
21312;DHT22;18076;52.154;10.570;2023-12-28T04:10:57;8.20;99.90
21312;DHT22;18076;52.154;10.570;2023-12-28T04:13:23;8.20;99.90
21312;DHT22;18076;52.154;10.570;2023-12-28T04:15:48;8.20;99.90
21312;DHT22;18076;52.154;10.570;2023-12-28T04:18:14;8.30;99.90
21312;DHT22;18076;52.154;10.570;2023-12-28T04:20:42;8.30;99.90
21312;DHT22;18076;52.154;10.570;2023-12-28T04:23:07;8.30;99.90
21312;DHT22;18076;52.154;10.570;2023-12-28T04:25:33;8.30;99.90
21312;DHT22;18076;52.154;10.570;2023-12-28T04:27:58;8.30;99.90
21312;DHT22;18076;52.154;10.570;2023-12-28T04:30:24;8.30;99.90
21312;DHT22;18076;52.154;10.570;2023-12-28T04:32:49;8.40;99.90
21312;DHT22;18076;52.154;10.570;2023-12-28T04:35:15;8.30;99.90
21312;DHT22;18076;52.154;10.570;2023-12-28T04:37:40;8.40;99.90
21312;DHT22;18076;52.154;10.570;2023-12-28T04:40:06;8.40;99.90
21312;DHT22;18076;52.154;10.570;2023-12-28T04:42:31;8.40;99.90
21312;DHT22;18076;52.154;10.570;2023-12-28T04:44:57;8.40;99.90
21312;DHT22;18076;52.154;10.570;2023-12-28T04:47:22;8.40;99.90
21312;DHT22;18076;52.154;10.570;2023-12-28T04:49:48;8.40;99.90
21312;DHT22;18076;52.154;10.570;2023-12-28T04:52:13;8.50;99.90
21312;DHT22;18076;52.154;10.570;2023-12-28T04:54:42;8.40;99.90
21312;DHT22;18076;52.154;10.570;2023-12-28T04:57:08;8.50;99.90
21312;DHT22;18076;52.154;10.570;2023-12-28T04:59:40;8.50;99.90
21312;DHT22;18076;52.154;10.570;2023-12-28T05:02:05;8.50;99.90
21312;DHT22;18076;52.154;10.570;2023-12-28T05:04:31;8.60;99.90
21312;DHT22;18076;52.154;10.570;2023-12-28T05:06:56;8.60;99.90
21312;DHT22;18076;52.154;10.570;2023-12-28T05:09:22;8.70;99.90
21312;DHT22;18076;52.154;10.570;2023-12-28T05:11:48;8.70;99.90
21312;DHT22;18076;52.154;10.570;2023-12-28T05:14:13;8.70;99.90
21312;DHT22;18076;52.154;10.570;2023-12-28T05:16:39;8.70;99.90
21312;DHT22;18076;52.154;10.570;2023-12-28T05:19:04;8.70;99.90
21312;DHT22;18076;52.154;10.570;2023-12-28T05:21:30;8.70;99.90
21312;DHT22;18076;52.154;10.570;2023-12-28T05:23:55;8.70;99.90
21312;DHT22;18076;52.154;10.570;2023-12-28T05:26:21;8.70;99.90
21312;DHT22;18076;52.154;10.570;2023-12-28T05:28:48;8.70;99.90
21312;DHT22;18076;52.154;10.570;2023-12-28T05:31:13;8.70;99.90
21312;DHT22;18076;52.154;10.570;2023-12-28T05:33:39;8.70;99.90
21312;DHT22;18076;52.154;10.570;2023-12-28T05:36:05;8.60;99.90
21312;DHT22;18076;52.154;10.570;2023-12-28T05:38:30;8.60;99.90
21312;DHT22;18076;52.154;10.570;2023-12-28T05:40:56;8.60;99.90
21312;DHT22;18076;52.154;10.570;2023-12-28T05:43:21;8.60;99.90
21312;DHT22;18076;52.154;10.570;2023-12-28T05:45:47;8.60;99.90
21312;DHT22;18076;52.154;10.570;2023-12-28T05:48:12;8.60;99.90
21312;DHT22;18076;52.154;10.570;2023-12-28T05:50:38;8.70;99.90
21312;DHT22;18076;52.154;10.570;2023-12-28T05:53:03;8.70;99.90
21312;DHT22;18076;52.154;10.570;2023-12-28T05:55:29;8.70;99.90
21312;DHT22;18076;52.154;10.570;2023-12-28T05:57:54;8.70;99.90
21312;DHT22;18076;52.154;10.570;2023-12-28T06:00:20;8.70;99.90
21312;DHT22;18076;52.154;10.570;2023-12-28T06:02:46;8.70;99.90
21312;DHT22;18076;52.154;10.570;2023-12-28T06:05:12;8.70;99.90
21312;DHT22;18076;52.154;10.570;2023-12-28T06:07:37;8.70;99.90
21312;DHT22;18076;52.154;10.570;2023-12-28T06:10:03;8.70;99.90
21312;DHT22;18076;52.154;10.570;2023-12-28T06:12:29;8.70;99.90
21312;DHT22;18076;52.154;10.570;2023-12-28T06:14:55;8.70;99.90
21312;DHT22;18076;52.154;10.570;2023-12-28T06:17:20;8.70;99.90
21312;DHT22;18076;52.154;10.570;2023-12-28T06:19:46;8.70;99.90
21312;DHT22;18076;52.154;10.570;2023-12-28T06:22:11;8.80;99.90
21312;DHT22;18076;52.154;10.570;2023-12-28T06:24:38;8.70;99.90
21312;DHT22;18076;52.154;10.570;2023-12-28T06:27:04;8.70;99.90
21312;DHT22;18076;52.154;10.570;2023-12-28T06:29:30;8.70;99.90
21312;DHT22;18076;52.154;10.570;2023-12-28T06:31:55;8.70;99.90
21312;DHT22;18076;52.154;10.570;2023-12-28T06:34:21;8.70;99.90
21312;DHT22;18076;52.154;10.570;2023-12-28T06:36:46;8.70;99.90
21312;DHT22;18076;52.154;10.570;2023-12-28T06:39:12;8.70;99.90
21312;DHT22;18076;52.154;10.570;2023-12-28T06:41:37;8.70;99.90
21312;DHT22;18076;52.154;10.570;2023-12-28T06:44:03;8.70;99.90
21312;DHT22;18076;52.154;10.570;2023-12-28T06:46:29;8.70;99.90
21312;DHT22;18076;52.154;10.570;2023-12-28T06:48:54;8.70;99.90
21312;DHT22;18076;52.154;10.570;2023-12-28T06:51:20;8.70;99.90
21312;DHT22;18076;52.154;10.570;2023-12-28T06:53:46;8.70;99.90
21312;DHT22;18076;52.154;10.570;2023-12-28T06:56:12;8.70;99.90
21312;DHT22;18076;52.154;10.570;2023-12-28T06:58:37;8.60;99.90
21312;DHT22;18076;52.154;10.570;2023-12-28T07:01:03;8.60;99.90
21312;DHT22;18076;52.154;10.570;2023-12-28T07:03:29;8.60;99.90
21312;DHT22;18076;52.154;10.570;2023-12-28T07:06:00;8.60;99.90
21312;DHT22;18076;52.154;10.570;2023-12-28T07:08:26;8.60;99.90
21312;DHT22;18076;52.154;10.570;2023-12-28T07:10:51;8.60;99.90
21312;DHT22;18076;52.154;10.570;2023-12-28T07:13:17;8.60;99.90
21312;DHT22;18076;52.154;10.570;2023-12-28T07:15:43;8.50;99.90
21312;DHT22;18076;52.154;10.570;2023-12-28T07:18:08;8.50;99.90
21312;DHT22;18076;52.154;10.570;2023-12-28T07:20:34;8.50;99.90
21312;DHT22;18076;52.154;10.570;2023-12-28T07:22:59;8.50;99.90
21312;DHT22;18076;52.154;10.570;2023-12-28T07:25:25;8.50;99.90
21312;DHT22;18076;52.154;10.570;2023-12-28T07:27:50;8.40;99.90
21312;DHT22;18076;52.154;10.570;2023-12-28T07:30:16;8.40;99.90
21312;DHT22;18076;52.154;10.570;2023-12-28T07:32:43;8.50;99.90
21312;DHT22;18076;52.154;10.570;2023-12-28T07:35:08;8.50;99.90
21312;DHT22;18076;52.154;10.570;2023-12-28T07:37:34;8.50;99.90
21312;DHT22;18076;52.154;10.570;2023-12-28T07:40:00;8.50;99.90
21312;DHT22;18076;52.154;10.570;2023-12-28T07:42:26;8.60;99.90
21312;DHT22;18076;52.154;10.570;2023-12-28T07:44:51;8.60;99.90
21312;DHT22;18076;52.154;10.570;2023-12-28T07:47:17;8.60;99.90
21312;DHT22;18076;52.154;10.570;2023-12-28T07:49:43;8.60;99.90
21312;DHT22;18076;52.154;10.570;2023-12-28T07:52:08;8.60;99.90
21312;DHT22;18076;52.154;10.570;2023-12-28T07:54:34;8.60;99.90
21312;DHT22;18076;52.154;10.570;2023-12-28T07:56:59;8.60;99.90
21312;DHT22;18076;52.154;10.570;2023-12-28T07:59:25;8.60;99.90
21312;DHT22;18076;52.154;10.570;2023-12-28T08:01:51;8.60;99.90
21312;DHT22;18076;52.154;10.570;2023-12-28T08:04:16;8.60;99.90
21312;DHT22;18076;52.154;10.570;2023-12-28T08:06:42;8.60;99.90
21312;DHT22;18076;52.154;10.570;2023-12-28T08:09:07;8.60;99.90
21312;DHT22;18076;52.154;10.570;2023-12-28T08:11:34;8.70;99.90
21312;DHT22;18076;52.154;10.570;2023-12-28T08:13:59;8.60;99.90
21312;DHT22;18076;52.154;10.570;2023-12-28T08:16:25;8.60;99.90
21312;DHT22;18076;52.154;10.570;2023-12-28T08:18:51;8.60;99.90
21312;DHT22;18076;52.154;10.570;2023-12-28T08:21:17;8.60;99.90
21312;DHT22;18076;52.154;10.570;2023-12-28T08:23:43;8.60;99.90
21312;DHT22;18076;52.154;10.570;2023-12-28T08:26:08;8.60;99.90
21312;DHT22;18076;52.154;10.570;2023-12-28T08:28:35;8.60;99.90
21312;DHT22;18076;52.154;10.570;2023-12-28T08:31:00;8.60;99.90
21312;DHT22;18076;52.154;10.570;2023-12-28T08:33:26;8.60;99.90
21312;DHT22;18076;52.154;10.570;2023-12-28T08:35:51;8.70;99.90
21312;DHT22;18076;52.154;10.570;2023-12-28T08:38:17;8.70;99.90
21312;DHT22;18076;52.154;10.570;2023-12-28T08:40:42;8.70;99.90
21312;DHT22;18076;52.154;10.570;2023-12-28T08:43:09;8.70;99.90
21312;DHT22;18076;52.154;10.570;2023-12-28T08:45:35;8.80;99.90
21312;DHT22;18076;52.154;10.570;2023-12-28T08:48:01;8.70;99.90
21312;DHT22;18076;52.154;10.570;2023-12-28T08:50:26;8.80;99.90
21312;DHT22;18076;52.154;10.570;2023-12-28T08:52:52;8.80;99.90
21312;DHT22;18076;52.154;10.570;2023-12-28T08:55:17;8.90;99.90
21312;DHT22;18076;52.154;10.570;2023-12-28T08:57:43;8.90;99.90
21312;DHT22;18076;52.154;10.570;2023-12-28T09:00:09;9.00;99.90
21312;DHT22;18076;52.154;10.570;2023-12-28T09:02:35;9.00;99.90
21312;DHT22;18076;52.154;10.570;2023-12-28T09:05:01;9.20;99.90
21312;DHT22;18076;52.154;10.570;2023-12-28T09:07:26;9.30;99.90
21312;DHT22;18076;52.154;10.570;2023-12-28T09:09:52;9.30;99.90
21312;DHT22;18076;52.154;10.570;2023-12-28T09:12:17;9.50;99.90
21312;DHT22;18076;52.154;10.570;2023-12-28T09:14:43;9.80;99.90
21312;DHT22;18076;52.154;10.570;2023-12-28T09:17:08;9.90;99.90
21312;DHT22;18076;52.154;10.570;2023-12-28T09:19:34;10.10;99.90
21312;DHT22;18076;52.154;10.570;2023-12-28T09:21:59;10.30;99.90
21312;DHT22;18076;52.154;10.570;2023-12-28T09:24:25;10.10;99.90
21312;DHT22;18076;52.154;10.570;2023-12-28T09:26:51;9.90;99.90
21312;DHT22;18076;52.154;10.570;2023-12-28T09:29:16;9.80;99.90
21312;DHT22;18076;52.154;10.570;2023-12-28T09:31:42;9.80;99.90
21312;DHT22;18076;52.154;10.570;2023-12-28T09:34:07;9.90;99.90
21312;DHT22;18076;52.154;10.570;2023-12-28T09:36:33;9.90;99.90
21312;DHT22;18076;52.154;10.570;2023-12-28T09:38:58;9.80;99.90
21312;DHT22;18076;52.154;10.570;2023-12-28T09:41:25;9.80;99.90
21312;DHT22;18076;52.154;10.570;2023-12-28T09:43:57;9.80;99.90
21312;DHT22;18076;52.154;10.570;2023-12-28T09:46:23;10.20;99.90
21312;DHT22;18076;52.154;10.570;2023-12-28T09:48:48;11.00;99.90
21312;DHT22;18076;52.154;10.570;2023-12-28T09:51:14;12.00;99.90
21312;DHT22;18076;52.154;10.570;2023-12-28T09:53:41;12.70;99.90
21312;DHT22;18076;52.154;10.570;2023-12-28T09:56:08;13.00;99.90
21312;DHT22;18076;52.154;10.570;2023-12-28T09:58:33;13.40;99.90
21312;DHT22;18076;52.154;10.570;2023-12-28T10:01:00;13.70;99.90
21312;DHT22;18076;52.154;10.570;2023-12-28T10:03:26;13.80;99.90
21312;DHT22;18076;52.154;10.570;2023-12-28T10:05:52;13.60;99.90
21312;DHT22;18076;52.154;10.570;2023-12-28T10:08:17;13.20;99.90
21312;DHT22;18076;52.154;10.570;2023-12-28T10:10:43;13.10;99.90
21312;DHT22;18076;52.154;10.570;2023-12-28T10:13:16;13.10;99.90
21312;DHT22;18076;52.154;10.570;2023-12-28T10:15:42;13.50;99.90
21312;DHT22;18076;52.154;10.570;2023-12-28T10:18:08;13.00;99.90
21312;DHT22;18076;52.154;10.570;2023-12-28T10:20:34;12.90;99.90
21312;DHT22;18076;52.154;10.570;2023-12-28T10:22:59;13.50;99.90
21312;DHT22;18076;52.154;10.570;2023-12-28T10:25:26;13.80;99.90
21312;DHT22;18076;52.154;10.570;2023-12-28T10:27:52;14.00;99.90
21312;DHT22;18076;52.154;10.570;2023-12-28T10:30:19;14.00;99.90
21312;DHT22;18076;52.154;10.570;2023-12-28T10:32:45;14.20;99.90
21312;DHT22;18076;52.154;10.570;2023-12-28T10:35:10;14.40;99.90
21312;DHT22;18076;52.154;10.570;2023-12-28T10:37:36;14.50;99.90
21312;DHT22;18076;52.154;10.570;2023-12-28T10:40:05;14.00;99.90
21312;DHT22;18076;52.154;10.570;2023-12-28T10:42:32;13.90;99.90
21312;DHT22;18076;52.154;10.570;2023-12-28T10:45:02;14.10;99.90
21312;DHT22;18076;52.154;10.570;2023-12-28T10:47:28;13.60;99.90
21312;DHT22;18076;52.154;10.570;2023-12-28T10:49:56;13.50;99.90
21312;DHT22;18076;52.154;10.570;2023-12-28T10:52:25;13.10;99.90
21312;DHT22;18076;52.154;10.570;2023-12-28T10:57:44;14.30;99.90
21312;DHT22;18076;52.154;10.570;2023-12-28T11:00:14;14.60;99.90
21312;DHT22;18076;52.154;10.570;2023-12-28T11:02:44;14.40;99.90
21312;DHT22;18076;52.154;10.570;2023-12-28T11:05:11;14.70;99.90
21312;DHT22;18076;52.154;10.570;2023-12-28T11:07:37;15.00;99.90
21312;DHT22;18076;52.154;10.570;2023-12-28T11:10:04;15.10;99.90
21312;DHT22;18076;52.154;10.570;2023-12-28T11:12:30;15.10;99.90
21312;DHT22;18076;52.154;10.570;2023-12-28T11:14:56;14.90;99.90
21312;DHT22;18076;52.154;10.570;2023-12-28T11:17:22;14.80;99.90
21312;DHT22;18076;52.154;10.570;2023-12-28T11:19:50;14.50;99.90
21312;DHT22;18076;52.154;10.570;2023-12-28T11:22:16;14.20;99.90
21312;DHT22;18076;52.154;10.570;2023-12-28T11:24:41;13.60;99.90
21312;DHT22;18076;52.154;10.570;2023-12-28T11:27:07;13.00;99.90
21312;DHT22;18076;52.154;10.570;2023-12-28T11:29:34;12.60;99.90
21312;DHT22;18076;52.154;10.570;2023-12-28T11:32:00;12.30;99.90
21312;DHT22;18076;52.154;10.570;2023-12-28T11:34:29;12.10;99.90
21312;DHT22;18076;52.154;10.570;2023-12-28T11:36:55;11.90;99.90
21312;DHT22;18076;52.154;10.570;2023-12-28T11:39:30;11.80;99.90
21312;DHT22;18076;52.154;10.570;2023-12-28T11:42:02;11.60;99.90
21312;DHT22;18076;52.154;10.570;2023-12-28T11:44:31;11.50;99.90
21312;DHT22;18076;52.154;10.570;2023-12-28T11:47:10;11.50;99.90
21312;DHT22;18076;52.154;10.570;2023-12-28T11:49:36;11.40;99.90
21312;DHT22;18076;52.154;10.570;2023-12-28T11:52:01;11.40;99.90
21312;DHT22;18076;52.154;10.570;2023-12-28T11:54:27;11.40;99.90
21312;DHT22;18076;52.154;10.570;2023-12-28T11:56:54;11.50;99.90
21312;DHT22;18076;52.154;10.570;2023-12-28T11:59:19;11.40;99.90
21312;DHT22;18076;52.154;10.570;2023-12-28T12:01:51;11.50;99.90
21312;DHT22;18076;52.154;10.570;2023-12-28T12:04:17;11.40;99.90
21312;DHT22;18076;52.154;10.570;2023-12-28T12:06:48;11.50;99.90
21312;DHT22;18076;52.154;10.570;2023-12-28T12:09:16;11.50;99.90
21312;DHT22;18076;52.154;10.570;2023-12-28T12:11:41;11.50;99.90
21312;DHT22;18076;52.154;10.570;2023-12-28T12:14:10;11.50;99.90
21312;DHT22;18076;52.154;10.570;2023-12-28T12:16:36;11.50;99.90
21312;DHT22;18076;52.154;10.570;2023-12-28T12:19:05;11.50;99.90
21312;DHT22;18076;52.154;10.570;2023-12-28T12:21:35;11.50;99.90
21312;DHT22;18076;52.154;10.570;2023-12-28T12:24:00;11.50;99.90
21312;DHT22;18076;52.154;10.570;2023-12-28T12:26:26;11.40;99.90
21312;DHT22;18076;52.154;10.570;2023-12-28T12:28:52;11.40;99.90
21312;DHT22;18076;52.154;10.570;2023-12-28T12:31:17;11.40;99.90
21312;DHT22;18076;52.154;10.570;2023-12-28T12:33:43;11.40;99.90
21312;DHT22;18076;52.154;10.570;2023-12-28T12:36:09;11.30;99.90
21312;DHT22;18076;52.154;10.570;2023-12-28T12:38:35;11.30;99.90
21312;DHT22;18076;52.154;10.570;2023-12-28T12:41:01;11.30;99.90
21312;DHT22;18076;52.154;10.570;2023-12-28T12:43:26;11.30;99.90
21312;DHT22;18076;52.154;10.570;2023-12-28T12:45:52;11.30;99.90
21312;DHT22;18076;52.154;10.570;2023-12-28T12:48:18;11.30;99.90
21312;DHT22;18076;52.154;10.570;2023-12-28T12:50:44;11.40;99.90
21312;DHT22;18076;52.154;10.570;2023-12-28T12:53:09;11.40;99.90
21312;DHT22;18076;52.154;10.570;2023-12-28T12:55:36;11.40;99.90
21312;DHT22;18076;52.154;10.570;2023-12-28T12:58:02;11.50;99.90
21312;DHT22;18076;52.154;10.570;2023-12-28T13:00:27;11.50;99.90
21312;DHT22;18076;52.154;10.570;2023-12-28T13:02:53;11.40;99.90
21312;DHT22;18076;52.154;10.570;2023-12-28T13:05:20;11.50;99.90
21312;DHT22;18076;52.154;10.570;2023-12-28T13:07:46;11.60;99.90
21312;DHT22;18076;52.154;10.570;2023-12-28T13:10:11;11.50;99.90
21312;DHT22;18076;52.154;10.570;2023-12-28T13:12:37;11.60;99.90
21312;DHT22;18076;52.154;10.570;2023-12-28T13:15:03;11.60;99.90
21312;DHT22;18076;52.154;10.570;2023-12-28T13:17:28;11.50;99.90
21312;DHT22;18076;52.154;10.570;2023-12-28T13:19:54;11.50;99.90
21312;DHT22;18076;52.154;10.570;2023-12-28T13:22:19;11.50;99.90
21312;DHT22;18076;52.154;10.570;2023-12-28T13:24:45;11.60;99.90
21312;DHT22;18076;52.154;10.570;2023-12-28T13:27:10;11.60;99.90
21312;DHT22;18076;52.154;10.570;2023-12-28T13:29:36;11.60;99.90
21312;DHT22;18076;52.154;10.570;2023-12-28T13:32:02;11.70;99.90
21312;DHT22;18076;52.154;10.570;2023-12-28T13:34:27;11.70;99.90
21312;DHT22;18076;52.154;10.570;2023-12-28T13:36:54;11.70;99.90
21312;DHT22;18076;52.154;10.570;2023-12-28T13:39:19;11.60;99.90
21312;DHT22;18076;52.154;10.570;2023-12-28T13:41:45;11.60;99.90
21312;DHT22;18076;52.154;10.570;2023-12-28T13:44:10;11.60;99.90
21312;DHT22;18076;52.154;10.570;2023-12-28T13:46:40;11.60;99.90
21312;DHT22;18076;52.154;10.570;2023-12-28T13:49:06;11.60;99.90
21312;DHT22;18076;52.154;10.570;2023-12-28T13:51:33;11.50;99.90
21312;DHT22;18076;52.154;10.570;2023-12-28T13:53:58;11.40;99.90
21312;DHT22;18076;52.154;10.570;2023-12-28T13:56:24;11.40;99.90
21312;DHT22;18076;52.154;10.570;2023-12-28T13:58:49;11.30;99.90
21312;DHT22;18076;52.154;10.570;2023-12-28T14:01:15;11.30;99.90
21312;DHT22;18076;52.154;10.570;2023-12-28T14:03:40;11.40;99.90
21312;DHT22;18076;52.154;10.570;2023-12-28T14:06:06;11.40;99.90
21312;DHT22;18076;52.154;10.570;2023-12-28T14:08:31;11.40;99.90
21312;DHT22;18076;52.154;10.570;2023-12-28T14:10:57;11.40;99.90
21312;DHT22;18076;52.154;10.570;2023-12-28T14:13:23;11.40;99.90
21312;DHT22;18076;52.154;10.570;2023-12-28T14:15:48;11.40;99.90
21312;DHT22;18076;52.154;10.570;2023-12-28T14:18:14;11.40;99.90
21312;DHT22;18076;52.154;10.570;2023-12-28T14:20:39;11.40;99.90
21312;DHT22;18076;52.154;10.570;2023-12-28T14:23:05;11.30;99.90
21312;DHT22;18076;52.154;10.570;2023-12-28T14:25:31;11.20;99.90
21312;DHT22;18076;52.154;10.570;2023-12-28T14:27:56;11.10;99.90
21312;DHT22;18076;52.154;10.570;2023-12-28T14:30:22;11.00;99.90
21312;DHT22;18076;52.154;10.570;2023-12-28T14:32:48;11.00;99.90
21312;DHT22;18076;52.154;10.570;2023-12-28T14:35:13;10.90;99.90
21312;DHT22;18076;52.154;10.570;2023-12-28T14:37:42;10.90;99.90
21312;DHT22;18076;52.154;10.570;2023-12-28T14:40:07;10.80;99.90
21312;DHT22;18076;52.154;10.570;2023-12-28T14:42:35;10.80;99.90
21312;DHT22;18076;52.154;10.570;2023-12-28T14:45:00;10.80;99.90
21312;DHT22;18076;52.154;10.570;2023-12-28T14:47:29;10.70;99.90
21312;DHT22;18076;52.154;10.570;2023-12-28T14:49:54;10.70;99.90
21312;DHT22;18076;52.154;10.570;2023-12-28T14:52:20;10.60;99.90
21312;DHT22;18076;52.154;10.570;2023-12-28T14:54:46;10.60;99.90
21312;DHT22;18076;52.154;10.570;2023-12-28T14:57:11;10.60;99.90
21312;DHT22;18076;52.154;10.570;2023-12-28T14:59:37;10.60;99.90
21312;DHT22;18076;52.154;10.570;2023-12-28T15:02:03;10.50;99.90
21312;DHT22;18076;52.154;10.570;2023-12-28T15:04:28;10.50;99.90
21312;DHT22;18076;52.154;10.570;2023-12-28T15:06:54;10.50;99.90
21312;DHT22;18076;52.154;10.570;2023-12-28T15:09:20;10.50;99.90
21312;DHT22;18076;52.154;10.570;2023-12-28T15:11:45;10.40;99.90
21312;DHT22;18076;52.154;10.570;2023-12-28T15:14:11;10.30;99.90
21312;DHT22;18076;52.154;10.570;2023-12-28T15:16:37;10.30;99.90
21312;DHT22;18076;52.154;10.570;2023-12-28T15:19:03;10.20;99.90
21312;DHT22;18076;52.154;10.570;2023-12-28T15:21:28;10.20;99.90